Time;durP1;ratioP1;P1;durP2;ratioP2;P2;SDS_P1;SDS_P2;PMS_P1;PMS_P2;Temp;Humidity;BMP_temperature;BMP_pressure;BME280_temperature;BME280_humidity;BME280_pressure;Samples;Min_cycle;Max_cycle;Signal;HPM_P1;HPM_P2
2022/12/30 00:00:06;;;;;;;;;;;;;;;3.31;100.00;100552.91;304879;32;4077;-75
2022/12/30 00:00:16;;;;;;;;;;;;;;;3.29;100.00;100555.50;302867;32;4634;-76
2022/12/30 00:00:27;;;;;;;;;;;;;;;3.29;100.00;100544.28;303160;32;2215;-75
2022/12/30 00:00:40;;;;;;;;;;;;;;;3.28;100.00;100550.31;305926;32;3841;-75
2022/12/30 00:00:50;;;;;;;;;;;;;;;3.29;100.00;100554.63;304669;32;4232;-75
2022/12/30 00:01:03;;;;;;;;;;;;;;;3.28;100.00;100547.75;302043;32;3432;-75
2022/12/30 00:01:14;;;;;;;;;;;;;;;3.27;100.00;100552.03;298980;33;2036;-76
2022/12/30 00:01:25;;;;;;;;;;;;;;;3.26;100.00;100549.44;298809;33;1352;-75
2022/12/30 00:01:35;;;;;;;;;;;;;;;3.26;100.00;100546.88;299516;32;4268;-75
2022/12/30 00:01:45;;;;;;;;;;;;;;;3.26;100.00;100549.44;297793;32;6098;-76
2022/12/30 00:01:56;;;;;;;;;;;;;;;3.26;100.00;100546.88;295643;33;2038;-76
2022/12/30 00:02:06;;;;;;;;;;;;;;;3.25;100.00;100545.13;295309;33;6159;-75
2022/12/30 00:02:16;;;;;;;;;;;;;;;3.27;100.00;100548.59;296332;33;6423;-75
2022/12/30 00:02:26;;;;;;;;;;;;;;;3.27;100.00;100549.47;295944;33;2064;-75
2022/12/30 00:02:36;;;;;;;;;;;;;;;3.27;100.00;100551.19;290988;33;6830;-75
2022/12/30 00:02:47;;;;;;;;;;;;;;;3.28;100.00;100552.91;289900;33;5305;-76
2022/12/30 00:02:57;;;;;;;;;;;;;;;3.27;100.00;100551.19;289710;34;1451;-76
2022/12/30 00:03:07;;;;;;;;;;;;;;;3.27;100.00;100553.78;291338;33;5814;-75
2022/12/30 00:03:18;;;;;;;;;;;;;;;3.26;100.00;100546.88;291306;33;4618;-77
2022/12/30 00:03:28;;;;;;;;;;;;;;;3.26;100.00;100550.31;292089;33;1472;-76
2022/12/30 00:03:39;;;;;;;;;;;;;;;3.27;100.00;100551.19;289270;34;4954;-76
2022/12/30 00:03:49;;;;;;;;;;;;;;;3.26;100.00;100552.91;290006;33;7369;-76
2022/12/30 00:03:59;;;;;;;;;;;;;;;3.26;100.00;100549.44;290101;34;1501;-76
2022/12/30 00:04:09;;;;;;;;;;;;;;;3.26;100.00;100554.63;288782;34;3954;-75
2022/12/30 00:04:20;;;;;;;;;;;;;;;3.25;100.00;100552.91;286024;34;9843;-75
2022/12/30 00:04:30;;;;;;;;;;;;;;;3.25;100.00;100555.47;283431;34;9278;-76
2022/12/30 00:04:40;;;;;;;;;;;;;;;3.24;100.00;100554.63;286859;34;1346;-76
2022/12/30 00:04:50;;;;;;;;;;;;;;;3.25;100.00;100552.91;286209;34;9379;-76
2022/12/30 00:05:01;;;;;;;;;;;;;;;3.26;100.00;100554.63;283741;34;7615;-76
2022/12/30 00:05:11;;;;;;;;;;;;;;;3.26;100.00;100549.44;284539;34;1452;-76
2022/12/30 00:07:14;;;;;;;;;;;;;;;3.26;100.00;100562.38;2494216;27;19933;-75
2022/12/30 00:07:24;;;;;;;;;;;;;;;3.25;100.00;100558.06;354404;27;1953;-75
2022/12/30 00:07:34;;;;;;;;;;;;;;;3.26;100.00;100564.97;351766;28;1528;-75
2022/12/30 00:07:45;;;;;;;;;;;;;;;3.26;100.00;100559.81;350282;28;2039;-75
2022/12/30 00:07:55;;;;;;;;;;;;;;;3.25;100.00;100563.25;350272;28;1192;-75
2022/12/30 00:08:45;;;;;;;;;;;;;;;3.23;100.00;100554.59;351941;28;784;-76
2022/12/30 00:08:47;;;;;;;;;;;;;;;3.23;100.00;100554.59;349011;28;978;-76
2022/12/30 00:08:57;;;;;;;;;;;;;;;3.24;100.00;100564.09;350414;28;894;-76
2022/12/30 00:09:07;;;;;;;;;;;;;;;3.23;100.00;100554.59;349522;28;1450;-76
2022/12/30 00:09:18;;;;;;;;;;;;;;;3.24;100.00;100558.94;349027;28;1215;-76
2022/12/30 00:09:28;;;;;;;;;;;;;;;3.23;100.00;100555.47;352506;28;1480;-76
2022/12/30 00:09:38;;;;;;;;;;;;;;;3.24;100.00;100556.34;349059;28;1339;-76
2022/12/30 00:09:49;;;;;;;;;;;;;;;3.24;100.00;100553.75;351749;28;1289;-76
2022/12/30 00:10:00;;;;;;;;;;;;;;;3.23;100.00;100559.78;347739;28;1387;-76
2022/12/30 00:10:11;;;;;;;;;;;;;;;3.23;100.00;100559.78;350192;28;1509;-76
2022/12/30 00:10:21;;;;;;;;;;;;;;;3.23;100.00;100554.59;350323;28;1473;-76
2022/12/30 00:10:31;;;;;;;;;;;;;;;3.23;100.00;100554.59;350206;28;1314;-76
2022/12/30 00:10:43;;;;;;;;;;;;;;;3.22;100.00;100552.88;347185;28;2032;-76
2022/12/30 00:10:53;;;;;;;;;;;;;;;3.23;100.00;100554.59;348833;28;1505;-76
2022/12/30 00:11:03;;;;;;;;;;;;;;;3.23;100.00;100550.31;347510;28;1079;-76
2022/12/30 00:11:15;;;;;;;;;;;;;;;3.23;100.00;100557.19;347451;28;1320;-76
2022/12/30 00:11:26;;;;;;;;;;;;;;;3.22;100.00;100551.16;345886;28;1976;-76
2022/12/30 00:11:36;;;;;;;;;;;;;;;3.23;100.00;100554.59;346171;28;974;-76
2022/12/30 00:11:46;;;;;;;;;;;;;;;3.22;100.00;100550.28;346056;28;2114;-76
2022/12/30 00:33:06;;;;;;;;;;;;;;;3.20;100.00;100552.00;346875;28;2080;-76
2022/12/30 00:33:09;;;;;;;;;;;;;;;2.98;100.00;100543.31;351694;28;1808;-76
2022/12/30 00:33:19;;;;;;;;;;;;;;;2.97;100.00;100542.44;348893;28;1421;-75
2022/12/30 00:33:31;;;;;;;;;;;;;;;2.97;100.00;100542.44;348880;28;1504;-75
2022/12/30 00:33:47;;;;;;;;;;;;;;;2.98;100.00;100546.75;347355;28;1442;-75
2022/12/30 00:34:09;;;;;;;;;;;;;;;2.99;100.00;100540.75;346051;28;1261;-75
2022/12/30 00:34:27;;;;;;;;;;;;;;;3.00;100.00;100542.47;344918;28;1350;-75
2022/12/30 00:34:38;;;;;;;;;;;;;;;3.00;100.00;100546.78;344968;28;1089;-75
2022/12/30 00:34:48;;;;;;;;;;;;;;;3.00;100.00;100546.78;346737;28;2025;-75
2022/12/30 00:34:58;;;;;;;;;;;;;;;3.00;100.00;100542.47;347497;28;1982;-75
2022/12/30 00:35:09;;;;;;;;;;;;;;;3.00;100.00;100542.47;346151;28;1330;-75
2022/12/30 00:35:19;;;;;;;;;;;;;;;2.99;100.00;100545.03;346042;28;2221;-75
2022/12/30 00:35:29;;;;;;;;;;;;;;;3.00;100.00;100544.19;345763;28;1522;-75
2022/12/30 00:35:39;;;;;;;;;;;;;;;2.98;100.00;100549.34;344796;28;2063;-75
2022/12/30 00:35:50;;;;;;;;;;;;;;;2.98;100.00;100549.34;344044;28;1177;-75
2022/12/30 00:36:00;;;;;;;;;;;;;;;2.98;100.00;100544.19;344843;28;2025;-75
2022/12/30 00:36:10;;;;;;;;;;;;;;;2.97;100.00;100547.63;342253;28;1468;-75
2022/12/30 00:36:20;;;;;;;;;;;;;;;2.96;100.00;100542.44;346242;28;1190;-75
2022/12/30 00:36:31;;;;;;;;;;;;;;;2.96;100.00;100545.91;345310;28;1390;-75
2022/12/30 00:36:41;;;;;;;;;;;;;;;2.96;100.00;100551.06;344686;28;2187;-76
2022/12/30 00:36:51;;;;;;;;;;;;;;;2.96;100.00;100543.31;345669;28;1224;-76
2022/12/30 00:37:01;;;;;;;;;;;;;;;2.96;100.00;100550.19;343659;28;1447;-76
2022/12/30 00:37:11;;;;;;;;;;;;;;;2.96;100.00;100545.91;343826;28;1881;-75
2022/12/30 00:37:23;;;;;;;;;;;;;;;2.97;100.00;100546.75;342041;28;1453;-75
2022/12/30 00:37:33;;;;;;;;;;;;;;;2.96;100.00;100545.91;344289;28;1420;-76
2022/12/30 00:37:43;;;;;;;;;;;;;;;2.95;100.00;100548.47;346216;28;1366;-76
2022/12/30 00:37:54;;;;;;;;;;;;;;;2.95;100.00;100541.59;346236;28;1173;-76
2022/12/30 00:38:04;;;;;;;;;;;;;;;2.93;100.00;100545.88;344397;28;1488;-76
2022/12/30 00:38:14;;;;;;;;;;;;;;;2.93;100.00;100542.44;343568;28;1487;-75
2022/12/30 00:38:24;;;;;;;;;;;;;;;2.92;100.00;100546.72;346101;28;1240;-75
2022/12/30 00:38:35;;;;;;;;;;;;;;;2.93;100.00;100545.00;346182;28;1665;-75
2022/12/30 00:38:45;;;;;;;;;;;;;;;2.93;100.00;100538.13;343433;28;1990;-75
2022/12/30 00:38:55;;;;;;;;;;;;;;;2.94;100.00;100546.75;343488;28;1224;-75
2022/12/30 00:39:05;;;;;;;;;;;;;;;2.93;100.00;100542.44;342210;28;1349;-75
2022/12/30 00:39:16;;;;;;;;;;;;;;;2.91;100.00;100536.38;345126;28;2032;-75
2022/12/30 00:39:26;;;;;;;;;;;;;;;2.92;100.00;100544.16;345048;28;1974;-75
2022/12/30 00:39:36;;;;;;;;;;;;;;;2.92;100.00;100538.97;343595;28;1436;-75
2022/12/30 00:39:47;;;;;;;;;;;;;;;2.93;100.00;100540.72;340131;28;1540;-75
2022/12/30 00:39:57;;;;;;;;;;;;;;;2.93;100.00;100543.28;338164;29;1426;-75
2022/12/30 00:40:07;;;;;;;;;;;;;;;2.94;100.00;100539.84;341019;28;1389;-75
2022/12/30 00:40:17;;;;;;;;;;;;;;;2.94;100.00;100537.25;342203;28;1906;-75
2022/12/30 00:40:28;;;;;;;;;;;;;;;2.95;100.00;100539.00;336852;29;2025;-74
2022/12/30 00:43:07;;;;;;;;;;;;;;;2.95;100.00;100543.31;339165;29;869;-75
2022/12/30 00:43:10;;;;;;;;;;;;;;;2.88;100.00;100542.41;328606;30;1278;-76
2022/12/30 00:43:20;;;;;;;;;;;;;;;2.88;100.00;100536.38;327114;30;1850;-76
2022/12/30 00:43:30;;;;;;;;;;;;;;;2.88;100.00;100538.94;326350;30;2140;-76
2022/12/30 00:43:42;;;;;;;;;;;;;;;2.88;100.00;100544.13;323507;30;1224;-76
2022/12/30 00:43:52;;;;;;;;;;;;;;;2.89;100.00;100541.53;325921;30;2300;-75
2022/12/30 00:44:02;;;;;;;;;;;;;;;2.88;100.00;100539.81;323247;30;2437;-76
2022/12/30 00:44:12;;;;;;;;;;;;;;;2.89;100.00;100544.13;324412;30;1419;-76
2022/12/30 00:44:23;;;;;;;;;;;;;;;2.90;100.00;100545.00;325132;30;2457;-76
2022/12/30 00:44:33;;;;;;;;;;;;;;;2.90;100.00;100545.84;322150;30;2645;-76
2022/12/30 00:44:43;;;;;;;;;;;;;;;2.91;100.00;100537.25;324317;30;2083;-76
2022/12/30 00:44:54;;;;;;;;;;;;;;;2.90;100.00;100545.84;326547;30;1708;-76
2022/12/30 00:45:04;;;;;;;;;;;;;;;2.90;100.00;100545.84;326632;30;1429;-76
2022/12/30 00:45:14;;;;;;;;;;;;;;;2.92;100.00;100545.88;325435;30;1305;-76
2022/12/30 00:45:24;;;;;;;;;;;;;;;2.91;100.00;100541.56;326709;30;1671;-76
2022/12/30 00:45:36;;;;;;;;;;;;;;;2.89;100.00;100549.31;326177;30;2520;-76
2022/12/30 00:45:46;;;;;;;;;;;;;;;2.89;100.00;100544.13;325381;30;2883;-76
2022/12/30 00:45:56;;;;;;;;;;;;;;;2.89;100.00;100548.44;322253;30;793;-76
2022/12/30 00:46:06;;;;;;;;;;;;;;;2.89;100.00;100544.13;321963;30;3133;-76
2022/12/30 00:46:18;;;;;;;;;;;;;;;2.89;100.00;100538.97;319971;30;3476;-76
2022/12/30 00:46:28;;;;;;;;;;;;;;;2.88;100.00;100539.81;317211;31;1996;-76
2022/12/30 00:46:39;;;;;;;;;;;;;;;2.87;100.00;100545.84;319891;30;3349;-76
2022/12/30 00:46:49;;;;;;;;;;;;;;;2.89;100.00;100549.31;320768;30;3107;-76
2022/12/30 00:46:59;;;;;;;;;;;;;;;2.88;100.00;100537.22;319807;30;2098;-76
2022/12/30 00:47:09;;;;;;;;;;;;;;;2.87;100.00;100540.69;320610;30;2223;-76
2022/12/30 00:47:20;;;;;;;;;;;;;;;2.87;100.00;100543.25;322105;30;2122;-76
2022/12/30 00:47:30;;;;;;;;;;;;;;;2.86;100.00;100541.53;320159;30;2910;-76
2022/12/30 00:47:40;;;;;;;;;;;;;;;2.87;100.00;100540.69;318680;31;1408;-76
2022/12/30 00:47:50;;;;;;;;;;;;;;;2.86;100.00;100533.78;319979;30;3629;-76
2022/12/30 00:56:53;;;;;;;;;;;;;;;2.88;100.00;100538.94;2492842;27;19927;-75
2022/12/30 00:57:03;;;;;;;;;;;;;;;2.89;100.00;100538.97;353629;27;1963;-75
2022/12/30 00:57:13;;;;;;;;;;;;;;;2.89;100.00;100538.09;351821;28;815;-75
2022/12/30 00:57:23;;;;;;;;;;;;;;;2.89;100.00;100538.09;349040;28;1223;-75
2022/12/30 00:57:34;;;;;;;;;;;;;;;2.87;100.00;100540.69;348262;28;1502;-75
2022/12/30 00:57:44;;;;;;;;;;;;;;;2.86;100.00;100544.13;348866;28;1439;-75
2022/12/30 00:57:54;;;;;;;;;;;;;;;2.86;100.00;100538.94;347547;28;828;-74
2022/12/30 00:58:04;;;;;;;;;;;;;;;2.86;100.00;100541.53;349121;28;1438;-74
2022/12/30 00:58:15;;;;;;;;;;;;;;;2.85;100.00;100537.22;349655;28;1197;-74
2022/12/30 00:58:25;;;;;;;;;;;;;;;2.85;100.00;100539.81;348978;28;1319;-74
2022/12/30 00:58:35;;;;;;;;;;;;;;;2.85;100.00;100537.22;347288;28;1403;-74
2022/12/30 00:58:45;;;;;;;;;;;;;;;2.85;100.00;100536.34;346590;28;1971;-74
2022/12/30 00:58:55;;;;;;;;;;;;;;;2.84;100.00;100538.06;347651;28;828;-74
2022/12/30 00:59:06;;;;;;;;;;;;;;;2.84;100.00;100535.47;347410;28;1343;-74
2022/12/30 00:59:16;;;;;;;;;;;;;;;2.84;100.00;100540.66;348778;28;1443;-75
2022/12/30 00:59:26;;;;;;;;;;;;;;;2.85;100.00;100536.34;347588;28;1347;-75
2022/12/30 00:59:36;;;;;;;;;;;;;;;2.84;100.00;100532.03;348899;28;1430;-75
2022/12/30 00:59:47;;;;;;;;;;;;;;;2.83;100.00;100538.06;350170;28;1422;-75
2022/12/30 00:59:57;;;;;;;;;;;;;;;2.84;100.00;100534.63;344930;28;1208;-75
2022/12/30 01:00:08;;;;;;;;;;;;;;;2.83;100.00;100536.34;347158;28;1991;-75
2022/12/30 01:00:18;;;;;;;;;;;;;;;2.84;100.00;100535.47;346841;28;2008;-75
2022/12/30 01:00:28;;;;;;;;;;;;;;;2.85;100.00;100539.81;347442;28;1954;-75
2022/12/30 01:00:39;;;;;;;;;;;;;;;2.86;100.00;100538.06;347602;28;873;-75
2022/12/30 01:00:49;;;;;;;;;;;;;;;2.84;100.00;100535.47;348262;28;2034;-75
2022/12/30 01:00:59;;;;;;;;;;;;;;;2.84;100.00;100534.63;350074;28;2031;-75
2022/12/30 01:01:09;;;;;;;;;;;;;;;2.83;100.00;100538.94;346126;28;1286;-75
2022/12/30 01:01:19;;;;;;;;;;;;;;;2.82;100.00;100537.19;346121;28;1408;-75
2022/12/30 01:01:30;;;;;;;;;;;;;;;2.82;100.00;100539.78;344899;28;1470;-75
2022/12/30 01:01:40;;;;;;;;;;;;;;;2.83;100.00;100543.22;344919;28;1291;-75
2022/12/30 01:01:50;;;;;;;;;;;;;;;2.83;100.00;100544.09;347161;28;1989;-75
2022/12/30 01:02:01;;;;;;;;;;;;;;;2.83;100.00;100536.34;347507;28;1987;-75
2022/12/30 01:02:11;;;;;;;;;;;;;;;2.83;100.00;100544.09;347664;28;852;-75
2022/12/30 01:02:21;;;;;;;;;;;;;;;2.83;100.00;100544.09;350279;28;1963;-75
2022/12/30 01:02:32;;;;;;;;;;;;;;;2.82;100.00;100546.66;346502;28;2023;-75
2022/12/30 01:02:42;;;;;;;;;;;;;;;2.81;100.00;100545.81;347574;28;1438;-77
2022/12/30 01:02:53;;;;;;;;;;;;;;;2.81;100.00;100542.34;348801;28;2008;-75
2022/12/30 01:03:03;;;;;;;;;;;;;;;2.81;100.00;100548.38;348230;28;1372;-75
2022/12/30 01:03:13;;;;;;;;;;;;;;;2.80;100.00;100546.66;348524;28;1984;-75
2022/12/30 01:03:23;;;;;;;;;;;;;;;2.80;100.00;100548.38;349028;28;963;-75
2022/12/30 01:03:34;;;;;;;;;;;;;;;2.80;100.00;100544.06;348837;28;1490;-75
2022/12/30 01:03:44;;;;;;;;;;;;;;;2.79;100.00;100547.50;346209;28;1400;-75
2022/12/30 01:03:54;;;;;;;;;;;;;;;2.80;100.00;100544.06;347711;28;862;-75
2022/12/30 01:04:04;;;;;;;;;;;;;;;2.79;100.00;100547.50;344224;28;1778;-76
2022/12/30 01:04:14;;;;;;;;;;;;;;;2.80;100.00;100551.84;347404;28;1498;-76
2022/12/30 01:04:25;;;;;;;;;;;;;;;2.79;100.00;100542.34;347618;28;792;-76
2022/12/30 01:04:35;;;;;;;;;;;;;;;2.80;100.00;100543.22;348724;28;1441;-76
2022/12/30 01:04:45;;;;;;;;;;;;;;;2.79;100.00;100549.25;345865;28;1341;-75
2022/12/30 01:04:55;;;;;;;;;;;;;;;2.78;100.00;100548.38;342261;28;876;-75
2022/12/30 01:05:06;;;;;;;;;;;;;;;2.79;100.00;100550.09;339228;28;2016;-75
2022/12/30 01:05:16;;;;;;;;;;;;;;;2.79;100.00;100557.84;340318;28;2228;-75
2022/12/30 01:05:26;;;;;;;;;;;;;;;2.77;100.00;100559.56;341035;29;895;-75
2022/12/30 01:05:37;;;;;;;;;;;;;;;2.78;100.00;100550.97;336922;29;1605;-75
2022/12/30 01:05:48;;;;;;;;;;;;;;;2.77;100.00;100554.41;337165;29;1999;-75
2022/12/30 01:05:58;;;;;;;;;;;;;;;2.77;100.00;100551.81;335754;29;1214;-75
2022/12/30 01:06:09;;;;;;;;;;;;;;;2.76;100.00;100555.25;336648;29;1498;-75
2022/12/30 01:06:20;;;;;;;;;;;;;;;2.75;100.00;100558.69;335484;29;1773;-75
2022/12/30 01:06:30;;;;;;;;;;;;;;;2.74;100.00;100554.38;336097;29;1466;-75
2022/12/30 01:06:40;;;;;;;;;;;;;;;2.74;100.00;100550.94;336858;29;1344;-75
2022/12/30 01:06:50;;;;;;;;;;;;;;;2.74;100.00;100553.50;336618;29;1751;-75
2022/12/30 01:07:00;;;;;;;;;;;;;;;2.74;100.00;100554.38;335617;29;1744;-75
2022/12/30 01:07:11;;;;;;;;;;;;;;;2.72;100.00;100550.91;333104;29;1383;-75
2022/12/30 01:07:21;;;;;;;;;;;;;;;2.70;100.00;100550.03;333832;29;2067;-75
2022/12/30 01:07:31;;;;;;;;;;;;;;;2.70;100.00;100552.63;331235;29;2068;-75
2022/12/30 01:07:41;;;;;;;;;;;;;;;2.67;100.00;100552.59;331817;29;1162;-75
2022/12/30 01:07:52;;;;;;;;;;;;;;;2.67;100.00;100552.59;328805;30;2082;-77
2022/12/30 01:08:02;;;;;;;;;;;;;;;2.67;100.00;100552.59;329226;29;1580;-76
2022/12/30 01:08:12;;;;;;;;;;;;;;;2.66;100.00;100550.88;331755;29;1220;-75
2022/12/30 01:08:22;;;;;;;;;;;;;;;2.66;100.00;100556.03;331767;29;1520;-75
2022/12/30 01:08:32;;;;;;;;;;;;;;;2.64;100.00;100548.28;330320;29;1477;-75
2022/12/30 01:08:43;;;;;;;;;;;;;;;2.66;100.00;100554.31;331487;29;1994;-75
2022/12/30 01:08:53;;;;;;;;;;;;;;;2.67;100.00;100550.88;329356;29;2074;-76
2022/12/30 01:09:03;;;;;;;;;;;;;;;2.68;100.00;100554.34;328038;29;2413;-76
2022/12/30 01:09:13;;;;;;;;;;;;;;;2.68;100.00;100552.63;327122;30;2100;-76
2022/12/30 01:09:24;;;;;;;;;;;;;;;2.69;100.00;100550.91;323375;30;1649;-76
2022/12/30 01:09:35;;;;;;;;;;;;;;;2.69;100.00;100550.91;322779;30;2615;-76
2022/12/30 01:09:45;;;;;;;;;;;;;;;2.69;100.00;100548.31;321289;30;2668;-76
2022/12/30 01:09:56;;;;;;;;;;;;;;;2.71;100.00;100548.31;324441;30;1345;-77
2022/12/30 01:10:06;;;;;;;;;;;;;;;2.72;100.00;100545.75;326665;30;2682;-77
2022/12/30 01:10:16;;;;;;;;;;;;;;;2.71;100.00;100544.03;324621;30;2068;-76
2022/12/30 01:10:26;;;;;;;;;;;;;;;2.72;100.00;100550.91;325783;30;954;-76
2022/12/30 01:10:40;;;;;;;;;;;;;;;2.73;100.00;100547.47;327800;30;1982;-76
2022/12/30 01:10:50;;;;;;;;;;;;;;;2.73;100.00;100552.66;321272;30;2031;-75
2022/12/30 01:11:07;;;;;;;;;;;;;;;2.73;100.00;100547.47;318483;30;2788;-75
2022/12/30 01:11:17;;;;;;;;;;;;;;;2.73;100.00;100552.66;319763;30;3290;-75
2022/12/30 01:11:27;;;;;;;;;;;;;;;2.72;100.00;100550.91;320094;30;3028;-76
2022/12/30 01:11:37;;;;;;;;;;;;;;;2.71;100.00;100549.19;318561;31;2057;-76
2022/12/30 01:12:07;;;;;;;;;;;;;;;2.70;100.00;100550.03;317443;30;3209;-76
2022/12/30 01:12:17;;;;;;;;;;;;;;;2.71;100.00;100548.31;318793;30;3673;-76
2022/12/30 01:12:28;;;;;;;;;;;;;;;2.72;100.00;100542.31;318173;31;2422;-76
2022/12/30 01:12:38;;;;;;;;;;;;;;;2.70;100.00;100544.88;312992;31;2170;-76
2022/12/30 01:12:48;;;;;;;;;;;;;;;2.70;100.00;100546.59;313043;31;1901;-76
2022/12/30 01:12:58;;;;;;;;;;;;;;;2.70;100.00;100547.47;311519;31;2684;-76
2022/12/30 01:13:09;;;;;;;;;;;;;;;2.69;100.00;100545.72;311653;31;2023;-76
2022/12/30 01:13:19;;;;;;;;;;;;;;;2.71;100.00;100553.50;313763;31;3418;-76
2022/12/30 01:13:29;;;;;;;;;;;;;;;2.70;100.00;100550.03;315737;31;4727;-76
2022/12/30 01:13:40;;;;;;;;;;;;;;;2.70;100.00;100544.88;312912;31;2053;-76
2022/12/30 01:13:51;;;;;;;;;;;;;;;2.70;100.00;100547.47;315684;31;4522;-76
2022/12/30 01:14:01;;;;;;;;;;;;;;;2.70;100.00;100544.88;312376;31;4455;-76
2022/12/30 01:14:11;;;;;;;;;;;;;;;2.70;100.00;100544.88;312020;31;799;-76
2022/12/30 01:14:22;;;;;;;;;;;;;;;2.70;100.00;100547.47;311308;31;1511;-76
2022/12/30 01:14:33;;;;;;;;;;;;;;;2.70;100.00;100542.28;305708;32;4295;-76
2022/12/30 01:14:45;;;;;;;;;;;;;;;2.69;100.00;100550.91;303368;32;3452;-76
2022/12/30 01:14:55;;;;;;;;;;;;;;;2.68;100.00;100544.88;302177;32;1261;-76
2022/12/30 01:15:06;;;;;;;;;;;;;;;2.69;100.00;100545.72;304162;32;2848;-76
2022/12/30 01:15:16;;;;;;;;;;;;;;;2.68;100.00;100544.88;302599;32;3668;-76
2022/12/30 01:15:26;;;;;;;;;;;;;;;2.69;100.00;100548.31;301103;32;1404;-76
2022/12/30 01:15:36;;;;;;;;;;;;;;;2.70;100.00;100547.47;298451;32;4616;-76
2022/12/30 01:15:46;;;;;;;;;;;;;;;2.68;100.00;100538.84;294228;33;6685;-75
2022/12/30 01:15:57;;;;;;;;;;;;;;;2.67;100.00;100540.56;294214;33;910;-76
2022/12/30 01:16:11;;;;;;;;;;;;;;;2.69;100.00;100537.97;294714;33;1243;-76
2022/12/30 01:16:21;;;;;;;;;;;;;;;2.68;100.00;100544.88;293932;33;6458;-76
2022/12/30 01:16:31;;;;;;;;;;;;;;;2.67;100.00;100542.28;292126;33;5826;-76
2022/12/30 01:16:41;;;;;;;;;;;;;;;2.67;100.00;100537.09;291159;33;1459;-76
2022/12/30 01:16:52;;;;;;;;;;;;;;;2.67;100.00;100542.28;289189;33;5923;-76
2022/12/30 01:17:03;;;;;;;;;;;;;;;2.67;100.00;100542.28;286403;34;4950;-76
2022/12/30 01:17:17;;;;;;;;;;;;;;;2.67;100.00;100542.28;283636;34;4515;-76
2022/12/30 01:17:28;;;;;;;;;;;;;;;2.69;100.00;100548.31;281458;34;5509;-76
2022/12/30 01:17:39;;;;;;;;;;;;;;;2.67;100.00;100542.28;282158;35;2015;-76
2022/12/30 01:17:49;;;;;;;;;;;;;;;2.68;100.00;100544.00;281928;34;7040;-76
2022/12/30 01:17:59;;;;;;;;;;;;;;;2.66;100.00;100546.56;281062;34;9184;-76
2022/12/30 01:18:09;;;;;;;;;;;;;;;2.67;100.00;100544.84;279999;35;2153;-76
2022/12/30 01:18:19;;;;;;;;;;;;;;;2.66;100.00;100541.41;279420;35;9609;-76
2022/12/30 01:18:30;;;;;;;;;;;;;;;2.66;100.00;100545.72;277936;35;8646;-76
2022/12/30 01:18:40;;;;;;;;;;;;;;;2.67;100.00;100540.56;277304;35;1516;-76
2022/12/30 01:18:50;;;;;;;;;;;;;;;2.67;100.00;100543.13;274974;35;8230;-76
2022/12/30 01:20:35;;;;;;;;;;;;;;;2.67;100.00;100530.22;2493225;27;20258;-75
2022/12/30 01:20:45;;;;;;;;;;;;;;;2.68;100.00;100536.25;354562;27;1162;-75
2022/12/30 01:20:58;;;;;;;;;;;;;;;2.67;100.00;100526.75;353149;27;2190;-75
2022/12/30 01:21:08;;;;;;;;;;;;;;;2.67;100.00;100529.34;351596;28;2112;-75
2022/12/30 01:21:19;;;;;;;;;;;;;;;2.67;100.00;100537.97;350338;28;1457;-75
2022/12/30 01:21:29;;;;;;;;;;;;;;;2.67;100.00;100527.63;348896;28;1380;-75
2022/12/30 01:21:39;;;;;;;;;;;;;;;2.66;100.00;100523.31;348555;28;1490;-75
2022/12/30 01:21:49;;;;;;;;;;;;;;;2.66;100.00;100533.66;349897;28;1983;-75
2022/12/30 01:21:59;;;;;;;;;;;;;;;2.67;100.00;100531.94;348850;28;1332;-75
2022/12/30 01:22:10;;;;;;;;;;;;;;;2.66;100.00;100536.25;347345;28;1473;-75
2022/12/30 01:22:20;;;;;;;;;;;;;;;2.66;100.00;100528.50;346785;28;1341;-75
2022/12/30 01:22:30;;;;;;;;;;;;;;;2.67;100.00;100534.53;346106;28;1095;-75
2022/12/30 01:22:40;;;;;;;;;;;;;;;2.67;100.00;100534.53;349001;28;2089;-75
2022/12/30 01:22:51;;;;;;;;;;;;;;;2.67;100.00;100526.75;350249;28;1504;-77
2022/12/30 01:23:01;;;;;;;;;;;;;;;2.67;100.00;100527.63;350194;28;1462;-75
2022/12/30 01:23:11;;;;;;;;;;;;;;;2.68;100.00;100528.50;348922;28;872;-75
2022/12/30 01:23:21;;;;;;;;;;;;;;;2.68;100.00;100528.50;348888;28;1988;-75
2022/12/30 01:23:31;;;;;;;;;;;;;;;2.68;100.00;100537.13;348960;28;1995;-76
2022/12/30 01:23:43;;;;;;;;;;;;;;;2.69;100.00;100540.56;347649;28;975;-75
2022/12/30 01:23:53;;;;;;;;;;;;;;;2.70;100.00;100544.88;349938;28;1407;-75
2022/12/30 01:24:03;;;;;;;;;;;;;;;2.68;100.00;100539.69;349974;28;1984;-75
2022/12/30 01:24:14;;;;;;;;;;;;;;;2.69;100.00;100535.41;350173;28;1480;-75
2022/12/30 01:24:24;;;;;;;;;;;;;;;2.68;100.00;100533.66;351064;28;2068;-75
2022/12/30 01:24:34;;;;;;;;;;;;;;;2.67;100.00;100540.56;351198;28;2101;-75
2022/12/30 01:24:44;;;;;;;;;;;;;;;2.67;100.00;100537.09;350295;28;1104;-75
2022/12/30 01:24:55;;;;;;;;;;;;;;;2.67;100.00;100537.09;350244;28;2101;-75
2022/12/30 01:25:05;;;;;;;;;;;;;;;2.68;100.00;100538.84;348954;28;2029;-75
2022/12/30 01:25:15;;;;;;;;;;;;;;;2.66;100.00;100537.97;346195;28;1175;-75
2022/12/30 01:25:25;;;;;;;;;;;;;;;2.67;100.00;100537.09;348563;28;1961;-75
2022/12/30 01:25:38;;;;;;;;;;;;;;;2.67;100.00;100537.97;347525;28;1423;-75
2022/12/30 01:25:48;;;;;;;;;;;;;;;2.64;100.00;100530.19;346328;28;1376;-75
2022/12/30 01:25:59;;;;;;;;;;;;;;;2.66;100.00;100535.38;344968;28;836;-75
2022/12/30 01:26:10;;;;;;;;;;;;;;;2.66;100.00;100540.53;347744;28;1477;-75
2022/12/30 01:26:20;;;;;;;;;;;;;;;2.66;100.00;100537.97;346820;28;1977;-75
2022/12/30 01:26:31;;;;;;;;;;;;;;;2.66;100.00;100535.38;344536;28;1291;-75
2022/12/30 01:26:41;;;;;;;;;;;;;;;2.66;100.00;100540.53;346532;28;1502;-75
2022/12/30 01:26:51;;;;;;;;;;;;;;;2.64;100.00;100537.94;344834;28;1463;-75
2022/12/30 01:27:01;;;;;;;;;;;;;;;2.65;100.00;100538.81;343401;28;1948;-75
2022/12/30 01:27:12;;;;;;;;;;;;;;;2.64;100.00;100537.09;342975;28;1532;-75
2022/12/30 01:27:22;;;;;;;;;;;;;;;2.63;100.00;100535.34;341813;28;1229;-75
2022/12/30 01:27:34;;;;;;;;;;;;;;;2.62;100.00;100534.50;341950;28;1466;-76
2022/12/30 01:27:48;;;;;;;;;;;;;;;2.62;100.00;100541.38;343590;28;1090;-76
2022/12/30 01:27:59;;;;;;;;;;;;;;;2.60;100.00;100531.03;344292;28;1361;-76
2022/12/30 01:28:09;;;;;;;;;;;;;;;2.61;100.00;100531.91;347463;28;1994;-76
2022/12/30 01:28:19;;;;;;;;;;;;;;;2.61;100.00;100534.47;345000;28;1424;-76
2022/12/30 01:28:32;;;;;;;;;;;;;;;2.62;100.00;100538.78;341591;28;1180;-76
2022/12/30 01:28:43;;;;;;;;;;;;;;;2.63;100.00;100535.34;337812;29;1609;-76
2022/12/30 01:28:53;;;;;;;;;;;;;;;2.62;100.00;100533.63;341105;28;1388;-76
2022/12/30 01:29:03;;;;;;;;;;;;;;;2.63;100.00;100532.78;337382;29;1804;-75
2022/12/30 01:29:19;;;;;;;;;;;;;;;2.63;100.00;100535.34;336026;29;1695;-75
2022/12/30 01:29:30;;;;;;;;;;;;;;;2.63;100.00;100535.34;338010;29;1989;-75
2022/12/30 01:29:41;;;;;;;;;;;;;;;2.64;100.00;100531.91;337169;29;1525;-75
2022/12/30 01:29:51;;;;;;;;;;;;;;;2.66;100.00;100527.63;337611;29;1984;-75
2022/12/30 01:30:02;;;;;;;;;;;;;;;2.64;100.00;100532.78;337998;29;1251;-75
2022/12/30 01:30:12;;;;;;;;;;;;;;;2.63;100.00;100533.63;340238;29;1721;-75
2022/12/30 01:30:22;;;;;;;;;;;;;;;2.66;100.00;100535.38;338767;29;1489;-75
2022/12/30 01:30:32;;;;;;;;;;;;;;;2.64;100.00;100537.09;341738;28;1950;-75
2022/12/30 01:30:43;;;;;;;;;;;;;;;2.65;100.00;100538.81;338465;29;1528;-75
2022/12/30 01:30:53;;;;;;;;;;;;;;;2.65;100.00;100534.50;340070;29;2001;-75
2022/12/30 01:31:04;;;;;;;;;;;;;;;2.65;100.00;100531.06;333118;29;874;-75
2022/12/30 01:31:14;;;;;;;;;;;;;;;2.65;100.00;100534.50;333106;29;1982;-75
2022/12/30 01:31:24;;;;;;;;;;;;;;;2.66;100.00;100525.03;334357;29;2130;-75
2022/12/30 01:31:35;;;;;;;;;;;;;;;2.66;100.00;100525.03;335540;29;1512;-75
2022/12/30 01:31:45;;;;;;;;;;;;;;;2.67;100.00;100531.94;333511;29;1590;-75
2022/12/30 01:31:55;;;;;;;;;;;;;;;2.67;100.00;100526.75;331561;29;1621;-75
2022/12/30 01:32:06;;;;;;;;;;;;;;;2.67;100.00;100526.75;330553;29;1433;-75
2022/12/30 01:32:18;;;;;;;;;;;;;;;2.67;100.00;100530.22;327665;29;1590;-75